Time;durP1;ratioP1;P1;durP2;ratioP2;P2;SDS_P1;SDS_P2;PMS_P1;PMS_P2;Temp;Humidity;BMP_temperature;BMP_pressure;BME280_temperature;BME280_humidity;BME280_pressure;Samples;Min_cycle;Max_cycle;Signal;HPM_P1;HPM_P2
2022/02/12 00:01:53;;;;;;;2.00;1.20;;;3.80;99.90;;;;;;5001697;28;20133;-60
2022/02/12 00:04:20;;;;;;;2.25;1.30;;;3.80;99.90;;;;;;5001927;28;20081;-60
2022/02/12 00:06:47;;;;;;;2.53;1.13;;;3.80;99.90;;;;;;5001898;28;20089;-59
2022/02/12 00:09:13;;;;;;;3.00;1.10;;;3.80;99.90;;;;;;5002217;28;20136;-60
2022/02/12 00:11:41;;;;;;;2.53;1.08;;;3.80;99.90;;;;;;5002812;28;20085;-59
2022/02/12 00:14:07;;;;;;;2.38;1.20;;;3.90;99.90;;;;;;5001059;28;20375;-59
2022/02/12 00:16:34;;;;;;;1.50;0.75;;;3.90;99.90;;;;;;4995616;28;20052;-60
2022/02/12 00:19:03;;;;;;;3.20;1.00;;;3.90;99.90;;;;;;4988038;28;20474;-57
2022/02/12 00:21:30;;;;;;;2.10;1.02;;;3.90;99.90;;;;;;4993365;28;20046;-60
2022/02/12 00:23:58;;;;;;;1.80;0.90;;;3.90;99.90;;;;;;4990177;28;20057;-59
2022/02/12 00:26:25;;;;;;;3.10;0.82;;;3.90;99.90;;;;;;4984086;28;20365;-59
2022/02/12 00:28:52;;;;;;;2.75;0.95;;;3.90;99.90;;;;;;4980929;28;20439;-59
2022/02/12 00:31:18;;;;;;;2.03;0.90;;;3.80;99.90;;;;;;5000977;28;20052;-59
2022/02/12 00:33:45;;;;;;;2.50;1.65;;;3.80;99.90;;;;;;5000270;28;20054;-60
2022/02/12 00:36:12;;;;;;;2.80;1.02;;;3.80;99.90;;;;;;4995208;28;20064;-59
2022/02/12 00:38:39;;;;;;;2.85;0.90;;;3.80;99.90;;;;;;4990633;28;20089;-59
2022/02/12 00:41:05;;;;;;;2.03;1.20;;;3.80;99.90;;;;;;4997796;28;20497;-59
2022/02/12 00:43:32;;;;;;;1.63;1.02;;;3.80;99.90;;;;;;5000137;28;20281;-59
2022/02/12 00:45:59;;;;;;;2.50;0.90;;;3.80;99.90;;;;;;5001391;28;20088;-59
2022/02/12 00:48:26;;;;;;;1.30;0.73;;;3.70;99.90;;;;;;5000739;28;20056;-59
2022/02/12 00:50:59;;;;;;;2.13;1.02;;;3.70;99.90;;;;;;5000227;28;20137;-59
2022/02/12 00:53:26;;;;;;;3.00;0.88;;;3.70;99.90;;;;;;5003561;28;20133;-57
2022/02/12 00:55:53;;;;;;;2.08;0.68;;;3.60;99.90;;;;;;4997052;28;20413;-59
2022/02/12 00:58:19;;;;;;;1.30;0.80;;;3.70;99.90;;;;;;5003440;28;20133;-59
2022/02/12 01:00:46;;;;;;;2.17;0.82;;;3.60;99.90;;;;;;4997723;28;20478;-59
2022/02/12 01:03:13;;;;;;;2.78;1.05;;;3.60;99.90;;;;;;5001693;28;20145;-62
2022/02/12 01:05:40;;;;;;;0.85;0.60;;;3.60;99.90;;;;;;5000461;28;20531;-60
2022/02/12 01:08:07;;;;;;;2.10;0.77;;;3.50;99.90;;;;;;4992181;28;20157;-59
2022/02/12 01:10:34;;;;;;;1.58;0.70;;;3.50;99.90;;;;;;5000477;28;20141;-59
2022/02/12 01:13:01;;;;;;;2.83;0.88;;;3.50;99.90;;;;;;4986307;28;20046;-59
2022/02/12 01:15:28;;;;;;;1.10;0.50;;;3.50;99.90;;;;;;4997792;28;20134;-59
2022/02/12 01:17:55;;;;;;;1.30;0.93;;;3.50;99.90;;;;;;4999989;28;20074;-59
2022/02/12 01:20:21;;;;;;;1.67;0.82;;;3.50;99.90;;;;;;4987297;28;20132;-59
2022/02/12 01:22:49;;;;;;;2.63;0.90;;;3.50;99.90;;;;;;4992403;28;20169;-59
2022/02/12 01:25:16;;;;;;;1.88;0.82;;;3.50;99.90;;;;;;4998372;28;20056;-59
2022/02/12 01:27:43;;;;;;;1.80;0.70;;;3.50;99.90;;;;;;5005266;28;20137;-59
2022/02/12 01:30:10;;;;;;;2.50;0.80;;;3.50;99.90;;;;;;4997794;28;20037;-59
2022/02/12 01:32:37;;;;;;;4.30;1.05;;;3.50;99.90;;;;;;4993513;28;20157;-59
2022/02/12 01:35:04;;;;;;;3.13;0.88;;;3.50;99.90;;;;;;4996722;28;20444;-59
2022/02/12 01:37:31;;;;;;;2.00;0.85;;;3.50;99.90;;;;;;5002695;28;20148;-60
2022/02/12 01:39:58;;;;;;;1.25;0.60;;;3.50;99.90;;;;;;4997682;28;20480;-59
2022/02/12 01:42:27;;;;;;;1.60;0.60;;;3.50;99.90;;;;;;4999629;28;20077;-59
2022/02/12 01:44:54;;;;;;;1.20;0.52;;;3.50;99.90;;;;;;5002929;28;20075;-59
2022/02/12 01:47:22;;;;;;;3.10;0.98;;;3.50;99.90;;;;;;4990722;28;20073;-59
2022/02/12 01:49:49;;;;;;;1.20;0.60;;;3.50;99.90;;;;;;5002733;28;20145;-59
2022/02/12 01:52:16;;;;;;;1.88;0.60;;;3.50;99.90;;;;;;4987078;28;20084;-60
2022/02/12 01:54:42;;;;;;;2.65;0.65;;;3.50;99.90;;;;;;4992455;28;20077;-59
2022/02/12 01:57:09;;;;;;;1.73;0.80;;;3.50;99.90;;;;;;4996309;28;20460;-59
2022/02/12 01:59:37;;;;;;;1.55;0.73;;;3.60;99.90;;;;;;4984245;28;20260;-59
2022/02/12 02:02:03;;;;;;;1.13;0.60;;;3.60;99.90;;;;;;4986590;28;20139;-59
2022/02/12 02:04:30;;;;;;;1.45;0.68;;;3.60;99.90;;;;;;4987640;28;20134;-59
2022/02/12 02:06:57;;;;;;;1.67;0.77;;;3.70;99.90;;;;;;4995600;28;20160;-59
2022/02/12 02:09:24;;;;;;;3.40;0.60;;;3.70;99.90;;;;;;4984774;28;20074;-61
2022/02/12 02:11:50;;;;;;;2.65;0.88;;;3.70;99.90;;;;;;4985185;28;20137;-59
2022/02/12 02:14:17;;;;;;;1.05;0.60;;;3.70;99.90;;;;;;4988477;28;20434;-59
2022/02/12 02:16:44;;;;;;;3.45;1.08;;;3.80;99.90;;;;;;5003829;28;20112;-58
2022/02/12 02:19:12;;;;;;;1.40;0.85;;;3.80;99.90;;;;;;4986748;28;20078;-59
2022/02/12 02:21:39;;;;;;;1.90;0.90;;;3.80;99.90;;;;;;4990809;28;20601;-59
2022/02/12 02:24:07;;;;;;;2.42;0.73;;;3.80;99.90;;;;;;4991968;28;20077;-59
2022/02/12 02:26:36;;;;;;;3.45;0.98;;;3.80;99.90;;;;;;5003115;28;20133;-59
2022/02/12 02:29:02;;;;;;;1.85;0.70;;;3.80;99.90;;;;;;5002508;28;20504;-59
2022/02/12 02:31:29;;;;;;;1.30;0.60;;;3.80;99.90;;;;;;4999990;28;20565;-59
2022/02/12 02:33:56;;;;;;;1.88;0.68;;;3.90;99.90;;;;;;4996327;28;20119;-59
2022/02/12 02:36:23;;;;;;;1.17;0.77;;;3.80;99.90;;;;;;5002059;28;20177;-59
2022/02/12 02:38:50;;;;;;;3.10;0.88;;;3.80;99.90;;;;;;5003354;28;20141;-59
2022/02/12 02:41:16;;;;;;;1.80;0.82;;;3.80;99.90;;;;;;5001980;28;20948;-59
2022/02/12 02:43:43;;;;;;;1.65;0.68;;;3.80;99.90;;;;;;4991429;28;20082;-59
2022/02/12 02:46:15;;;;;;;3.60;0.75;;;3.80;99.90;;;;;;5001025;28;20053;-60
2022/02/12 02:48:42;;;;;;;1.55;0.70;;;3.80;99.90;;;;;;4989742;28;20090;-59
2022/02/12 02:56:39;;;;;;;3.20;0.70;;;3.70;99.90;;;;;;4997132;28;20150;-59
2022/02/12 02:59:06;;;;;;;1.55;0.68;;;3.70;99.90;;;;;;4984720;28;20129;-59
2022/02/12 03:01:35;;;;;;;1.83;0.65;;;3.70;99.90;;;;;;4987477;28;20177;-59
2022/02/12 03:04:04;;;;;;;2.08;0.73;;;3.60;99.90;;;;;;5001086;28;20608;-59
2022/02/12 03:06:31;;;;;;;2.88;0.82;;;3.60;99.90;;;;;;5004401;28;20077;-59
2022/02/12 03:08:57;;;;;;;2.72;0.88;;;3.60;99.90;;;;;;5004308;28;20481;-59
2022/02/12 03:11:24;;;;;;;2.65;0.85;;;3.60;99.90;;;;;;5005286;28;20533;-57
2022/02/12 03:13:52;;;;;;;0.93;0.55;;;3.60;99.90;;;;;;4997546;28;20574;-59
2022/02/12 03:16:19;;;;;;;3.63;0.80;;;3.60;99.90;;;;;;4999650;28;20067;-59
2022/02/12 03:18:46;;;;;;;2.25;0.95;;;3.60;99.90;;;;;;4986603;28;20132;-59
2022/02/12 03:21:13;;;;;;;1.80;0.70;;;3.70;99.90;;;;;;5001351;28;20532;-59
2022/02/12 03:23:40;;;;;;;2.20;0.90;;;3.70;99.90;;;;;;5003335;28;20049;-59
2022/02/12 03:26:09;;;;;;;2.22;0.68;;;3.70;99.90;;;;;;5005304;28;20053;-59
2022/02/12 03:28:36;;;;;;;3.90;0.98;;;3.80;99.90;;;;;;5003948;28;20093;-57
2022/02/12 03:31:03;;;;;;;2.92;0.80;;;3.80;99.90;;;;;;5004873;28;20508;-57
2022/02/12 03:33:30;;;;;;;2.08;0.88;;;3.80;99.90;;;;;;4999478;28;20133;-59
2022/02/12 03:35:57;;;;;;;1.25;0.60;;;3.80;99.90;;;;;;5003114;28;20145;-59
2022/02/12 03:38:31;;;;;;;2.78;0.80;;;3.90;99.90;;;;;;5002273;28;20581;-59
2022/02/12 03:41:00;;;;;;;2.28;0.85;;;3.90;99.90;;;;;;4992032;28;20139;-59
2022/02/12 03:43:31;;;;;;;3.72;1.20;;;3.90;99.90;;;;;;5002464;28;20232;-59
2022/02/12 03:45:58;;;;;;;2.55;0.90;;;4.00;99.90;;;;;;5003302;28;20585;-59
2022/02/12 03:48:26;;;;;;;3.20;0.77;;;4.00;99.90;;;;;;4995603;28;20562;-59
2022/02/12 03:50:52;;;;;;;2.95;0.80;;;4.10;99.90;;;;;;4985770;28;20125;-59
2022/02/12 03:53:20;;;;;;;1.90;0.95;;;4.20;99.90;;;;;;4986984;28;20082;-59
2022/02/12 03:55:47;;;;;;;1.88;0.90;;;4.20;99.90;;;;;;5003536;28;20155;-60
2022/02/12 03:58:15;;;;;;;2.20;0.82;;;4.20;99.90;;;;;;4999386;28;20173;-59
2022/02/12 04:00:42;;;;;;;2.38;1.00;;;4.30;99.90;;;;;;4982460;28;20125;-59
2022/02/12 04:03:09;;;;;;;2.92;1.00;;;4.30;99.90;;;;;;4992477;28;20060;-60
2022/02/12 04:05:36;;;;;;;3.20;1.10;;;4.40;99.90;;;;;;4991382;28;20050;-59
2022/02/12 04:08:03;;;;;;;2.35;0.90;;;4.40;99.90;;;;;;4991126;28;20170;-59
2022/02/12 04:10:30;;;;;;;2.28;0.82;;;4.40;99.90;;;;;;5003309;28;20054;-59
2022/02/12 04:12:58;;;;;;;3.38;1.40;;;4.50;99.90;;;;;;5004434;28;20129;-60
2022/02/12 04:15:25;;;;;;;1.60;0.90;;;4.50;99.90;;;;;;4999982;28;20408;-60
2022/02/12 04:17:52;;;;;;;3.72;1.00;;;4.50;99.90;;;;;;4996696;28;20145;-59
2022/02/12 04:20:22;;;;;;;3.97;1.30;;;4.50;99.90;;;;;;4983971;28;20290;-60
2022/02/12 04:22:49;;;;;;;2.95;1.20;;;4.60;99.90;;;;;;4988763;28;20129;-60
2022/02/12 04:25:17;;;;;;;3.15;1.30;;;4.60;99.90;;;;;;4999150;28;20196;-59
2022/02/12 04:27:44;;;;;;;2.90;1.27;;;4.60;99.90;;;;;;5002647;28;20129;-59
2022/02/12 04:30:11;;;;;;;3.97;1.20;;;4.60;99.90;;;;;;5002654;28;20434;-59
2022/02/12 04:32:38;;;;;;;2.10;1.05;;;4.60;99.90;;;;;;4988280;28;20141;-59
2022/02/12 04:35:07;;;;;;;2.03;0.80;;;4.60;99.90;;;;;;4997364;28;20153;-60
2022/02/12 04:37:34;;;;;;;2.42;0.95;;;4.70;99.90;;;;;;4995983;28;20446;-59
2022/02/12 04:40:00;;;;;;;2.03;0.77;;;4.60;99.90;;;;;;5003679;28;20122;-59
2022/02/12 04:42:29;;;;;;;2.10;0.85;;;4.60;99.90;;;;;;4998035;28;20078;-59
2022/02/12 04:44:56;;;;;;;5.85;1.45;;;4.70;99.90;;;;;;4999099;28;20385;-59
2022/02/12 04:47:23;;;;;;;3.38;1.20;;;4.70;99.90;;;;;;5003169;28;20092;-58
2022/02/12 04:49:50;;;;;;;4.20;1.30;;;4.70;99.90;;;;;;5000932;28;20160;-59
2022/02/12 04:52:18;;;;;;;3.08;1.20;;;4.80;99.90;;;;;;4983844;28;20146;-59
2022/02/12 04:54:45;;;;;;;2.80;1.10;;;4.80;99.90;;;;;;4991803;28;20082;-59
2022/02/12 04:57:12;;;;;;;2.25;0.77;;;4.80;99.90;;;;;;4985141;28;20540;-60
2022/02/12 04:59:40;;;;;;;2.80;1.10;;;4.80;99.90;;;;;;4986444;28;20050;-60
2022/02/12 05:02:06;;;;;;;2.58;0.98;;;4.80;99.90;;;;;;4986827;28;20083;-59
2022/02/12 05:04:34;;;;;;;2.00;1.00;;;4.80;99.90;;;;;;4999987;28;20082;-59
2022/02/12 05:07:00;;;;;;;2.67;1.15;;;4.80;99.90;;;;;;5001843;28;20855;-59
2022/02/12 05:09:27;;;;;;;3.80;1.27;;;4.80;99.90;;;;;;4992177;28;20085;-59
2022/02/12 05:11:54;;;;;;;3.15;1.10;;;4.80;99.90;;;;;;4982912;28;20101;-59
2022/02/12 05:14:21;;;;;;;2.05;0.95;;;4.70;99.90;;;;;;4995174;28;20157;-59
2022/02/12 05:16:48;;;;;;;4.03;1.30;;;4.70;99.90;;;;;;5001606;28;20050;-60
2022/02/12 05:19:15;;;;;;;3.08;1.23;;;4.70;99.90;;;;;;4996299;28;20086;-59
2022/02/12 05:21:42;;;;;;;1.95;1.00;;;4.70;99.90;;;;;;5003292;28;20121;-59
2022/02/12 05:24:08;;;;;;;3.25;1.02;;;4.70;99.90;;;;;;5000361;28;20137;-60
2022/02/12 05:26:35;;;;;;;3.15;1.08;;;4.70;99.90;;;;;;4982790;28;20133;-59
2022/02/12 05:29:02;;;;;;;2.58;1.40;;;4.60;99.90;;;;;;4996956;28;20478;-59
2022/02/12 05:31:29;;;;;;;4.78;1.55;;;4.70;99.90;;;;;;4987848;28;20057;-58
2022/02/12 05:33:56;;;;;;;3.42;1.10;;;4.70;99.90;;;;;;4995776;28;20141;-59
2022/02/12 05:36:23;;;;;;;2.38;0.98;;;4.70;99.90;;;;;;4997680;28;20128;-58
2022/02/12 05:38:50;;;;;;;2.85;1.38;;;4.60;99.90;;;;;;5002577;28;20081;-59
2022/02/12 05:41:16;;;;;;;3.83;1.23;;;4.60;99.90;;;;;;4990776;28;20921;-59
2022/02/12 05:43:44;;;;;;;2.40;1.23;;;4.60;99.90;;;;;;4995590;28;20606;-59
2022/02/12 05:46:12;;;;;;;2.75;1.20;;;4.60;99.90;;;;;;4992519;28;20039;-59
2022/02/12 05:48:39;;;;;;;3.90;1.30;;;4.60;99.90;;;;;;4996652;28;20053;-59
2022/02/12 05:51:06;;;;;;;2.53;0.98;;;4.60;99.90;;;;;;5014233;28;20049;-59
2022/02/12 05:53:33;;;;;;;4.35;1.67;;;4.60;99.90;;;;;;5000230;28;20138;-59
2022/02/12 05:55:59;;;;;;;3.30;1.02;;;4.60;99.90;;;;;;5006055;28;20137;-59
2022/02/12 05:58:26;;;;;;;2.05;0.93;;;4.60;99.90;;;;;;5005157;28;20467;-59
2022/02/12 06:00:53;;;;;;;2.67;1.60;;;4.70;99.90;;;;;;5001759;28;20465;-58
2022/02/12 06:03:20;;;;;;;2.22;0.93;;;4.60;99.90;;;;;;5003657;28;20122;-58
2022/02/12 06:05:46;;;;;;;2.13;1.23;;;4.70;99.90;;;;;;4998607;28;20137;-59
2022/02/12 06:08:13;;;;;;;3.88;1.30;;;4.60;99.90;;;;;;5004662;28;20089;-59
2022/02/12 06:10:44;;;;;;;3.42;1.73;;;4.70;99.90;;;;;;5004778;28;20105;-59
2022/02/12 06:13:11;;;;;;;2.55;1.40;;;4.70;99.90;;;;;;5002443;28;20445;-59
2022/02/12 06:15:38;;;;;;;2.85;1.27;;;4.70;99.90;;;;;;5003323;28;20042;-59
2022/02/12 06:18:04;;;;;;;2.20;1.10;;;4.70;99.90;;;;;;5004838;28;20551;-58
2022/02/12 06:20:31;;;;;;;4.95;1.58;;;4.60;99.90;;;;;;5002138;28;20112;-59
2022/02/12 06:22:59;;;;;;;2.38;1.05;;;4.60;99.90;;;;;;4995613;28;20136;-59
2022/02/12 06:25:26;;;;;;;3.03;1.40;;;4.60;99.90;;;;;;4999042;28;20074;-59
2022/02/12 06:27:53;;;;;;;1.92;1.00;;;4.50;99.90;;;;;;4995123;28;20484;-58
2022/02/12 06:30:20;;;;;;;4.82;1.60;;;4.50;99.90;;;;;;4996782;28;20485;-57
2022/02/12 06:32:46;;;;;;;2.92;1.33;;;4.60;99.90;;;;;;4988022;28;20096;-60
2022/02/12 06:35:13;;;;;;;1.60;0.80;;;4.50;99.90;;;;;;5002208;28;20640;-59
2022/02/12 06:37:40;;;;;;;2.45;0.85;;;4.60;99.90;;;;;;5004835;28;20117;-59
2022/02/12 06:40:07;;;;;;;2.92;1.15;;;4.60;99.90;;;;;;5008249;28;20156;-59
2022/02/12 06:42:34;;;;;;;2.20;1.17;;;4.50;99.90;;;;;;5008686;28;20077;-60
2022/02/12 06:45:01;;;;;;;3.55;1.63;;;4.50;99.90;;;;;;5009517;28;20153;-60
2022/02/12 06:47:27;;;;;;;3.17;1.40;;;4.50;99.90;;;;;;5009605;28;20135;-59
2022/02/12 06:49:54;;;;;;;2.45;1.15;;;4.50;99.90;;;;;;4996279;28;20098;-59
2022/02/12 06:52:21;;;;;;;3.83;1.25;;;4.50;99.90;;;;;;4986987;28;20074;-59
2022/02/12 06:54:48;;;;;;;2.58;1.05;;;4.50;99.90;;;;;;4992819;28;20573;-59
2022/02/12 06:57:14;;;;;;;3.05;1.13;;;4.60;99.90;;;;;;4985554;28;20487;-59
2022/02/12 06:59:43;;;;;;;2.22;0.90;;;4.50;99.90;;;;;;4993236;28;20056;-57
2022/02/12 07:02:09;;;;;;;2.35;1.20;;;4.50;99.90;;;;;;4981530;28;20054;-58
2022/02/12 07:04:36;;;;;;;1.98;0.90;;;4.50;99.90;;;;;;4995876;28;20064;-59
2022/02/12 07:07:03;;;;;;;1.70;0.90;;;4.50;99.90;;;;;;5000169;28;20133;-58
2022/02/12 07:09:30;;;;;;;3.67;1.25;;;4.60;99.90;;;;;;4986168;28;20142;-59
2022/02/12 07:11:57;;;;;;;2.40;1.25;;;4.50;99.90;;;;;;4989405;28;20149;-58
2022/02/12 07:14:24;;;;;;;2.22;0.80;;;4.60;99.90;;;;;;5004671;28;20062;-60
2022/02/12 07:16:51;;;;;;;1.70;0.93;;;4.50;99.90;;;;;;4999284;28;20057;-59
2022/02/12 07:19:18;;;;;;;3.15;1.30;;;4.60;99.90;;;;;;4999354;28;20078;-57
2022/02/12 07:21:45;;;;;;;1.55;0.90;;;4.60;99.90;;;;;;4980296;28;20050;-56
2022/02/12 07:24:12;;;;;;;2.38;1.30;;;4.60;99.90;;;;;;4992841;28;20144;-59
2022/02/12 07:26:39;;;;;;;2.90;1.10;;;4.60;99.90;;;;;;4986760;28;20189;-59
2022/02/12 07:29:05;;;;;;;4.22;1.25;;;4.60;99.90;;;;;;4980032;28;20129;-59
2022/02/12 07:31:33;;;;;;;1.88;1.00;;;4.60;99.90;;;;;;4992001;28;20059;-58
2022/02/12 07:34:00;;;;;;;1.77;1.00;;;4.60;99.90;;;;;;4999357;28;20065;-59
2022/02/12 07:36:26;;;;;;;2.17;1.13;;;4.70;99.90;;;;;;4988762;28;20062;-59
2022/02/12 07:38:53;;;;;;;1.70;0.95;;;4.70;99.90;;;;;;4980244;28;20050;-59
2022/02/12 07:41:20;;;;;;;2.30;1.23;;;4.70;99.90;;;;;;4997461;28;20776;-59
2022/02/12 07:43:47;;;;;;;1.85;0.90;;;4.70;99.90;;;;;;4998312;28;20749;-58
2022/02/12 07:46:14;;;;;;;2.42;1.05;;;4.70;99.90;;;;;;4989140;28;20096;-59
2022/02/12 07:48:42;;;;;;;2.40;1.40;;;4.70;99.90;;;;;;4994310;28;20152;-59
2022/02/12 07:51:12;;;;;;;3.65;1.38;;;4.80;99.90;;;;;;4981649;28;20664;-58
2022/02/12 07:53:38;;;;;;;3.20;1.55;;;4.80;99.90;;;;;;4994837;28;20060;-59
2022/02/12 07:56:05;;;;;;;3.90;1.30;;;4.90;99.90;;;;;;4999356;28;20163;-59
2022/02/12 07:58:38;;;;;;;2.35;1.20;;;4.90;99.90;;;;;;4997486;28;20061;-59
2022/02/12 08:01:05;;;;;;;1.33;1.20;;;5.00;99.90;;;;;;5018265;28;20045;-59
2022/02/12 08:03:31;;;;;;;1.85;0.98;;;5.10;99.90;;;;;;4998728;28;20049;-58
2022/02/12 08:05:58;;;;;;;2.92;1.38;;;5.10;99.90;;;;;;4996652;28;20518;-59
2022/02/12 08:08:25;;;;;;;2.60;1.27;;;5.20;99.90;;;;;;4977878;28;20133;-58
2022/02/12 08:13:37;;;;;;;3.08;1.20;;;5.30;99.90;;;;;;4984841;28;20073;-58
2022/02/12 08:16:04;;;;;;;3.85;1.60;;;5.30;99.90;;;;;;4988230;28;20081;-59
2022/02/12 08:18:31;;;;;;;1.90;1.02;;;5.40;99.90;;;;;;4983798;28;20042;-58
2022/02/12 08:20:58;;;;;;;2.53;1.00;;;5.50;99.90;;;;;;4988876;28;20569;-59
2022/02/12 08:23:24;;;;;;;4.63;1.65;;;5.50;99.90;;;;;;4983301;28;20585;-58
2022/02/12 08:25:51;;;;;;;2.55;1.35;;;5.60;99.90;;;;;;4986511;28;20133;-59
2022/02/12 08:28:18;;;;;;;2.30;1.10;;;5.70;99.90;;;;;;4987467;28;20147;-59
2022/02/12 08:30:44;;;;;;;2.15;1.08;;;5.70;99.90;;;;;;4986606;28;20224;-58
2022/02/12 08:33:11;;;;;;;2.55;1.08;;;5.80;99.90;;;;;;4990829;28;20466;-59
2022/02/12 08:35:52;;;;;;;2.35;1.30;;;5.90;99.90;;;;;;4990298;28;20104;-58
2022/02/12 08:38:19;;;;;;;5.05;1.60;;;6.00;99.90;;;;;;4989619;28;20164;-59
2022/02/12 08:40:46;;;;;;;4.70;1.70;;;6.10;99.90;;;;;;4988270;28;20081;-58
2022/02/12 08:43:14;;;;;;;6.05;1.60;;;6.20;99.90;;;;;;4992294;28;20145;-59
2022/02/12 08:45:41;;;;;;;3.42;1.60;;;6.30;99.90;;;;;;4995612;28;20474;-59
2022/02/12 08:48:09;;;;;;;2.05;1.10;;;6.40;99.90;;;;;;4998856;28;20523;-59
2022/02/12 08:50:37;;;;;;;1.70;0.90;;;6.40;99.90;;;;;;5011785;28;20084;-59
2022/02/12 08:53:03;;;;;;;2.72;1.30;;;6.50;99.90;;;;;;5014877;28;20136;-59
2022/02/12 08:55:31;;;;;;;3.65;1.58;;;6.60;99.90;;;;;;4996615;28;20141;-59
2022/02/12 08:57:57;;;;;;;5.10;1.80;;;6.60;99.90;;;;;;4998581;28;20133;-59
2022/02/12 09:00:24;;;;;;;3.00;1.58;;;6.70;99.90;;;;;;4997670;28;20149;-58
2022/02/12 09:03:11;;;;;;;4.90;1.75;;;6.70;99.90;;;;;;5005563;28;20405;-58
2022/02/12 09:05:38;;;;;;;3.55;1.60;;;6.80;99.90;;;;;;4987678;28;20056;-58
2022/02/12 09:08:05;;;;;;;4.20;1.52;;;6.90;99.90;;;;;;4997892;28;20099;-58
2022/02/12 09:10:32;;;;;;;5.28;1.38;;;7.00;99.90;;;;;;4995902;28;20050;-58
2022/02/12 09:12:59;;;;;;;3.53;1.83;;;7.00;99.90;;;;;;4987677;28;20149;-59
2022/02/12 09:15:25;;;;;;;3.15;1.55;;;7.10;99.90;;;;;;4993108;28;20089;-60
2022/02/12 09:17:52;;;;;;;2.92;1.27;;;7.20;99.90;;;;;;5017866;28;20481;-58
2022/02/12 09:20:19;;;;;;;4.13;1.45;;;7.30;99.90;;;;;;5003653;28;20453;-59
2022/02/12 09:22:46;;;;;;;3.28;1.10;;;7.30;99.90;;;;;;4981888;28;20463;-60
2022/02/12 09:25:12;;;;;;;4.57;1.60;;;7.40;99.90;;;;;;4993987;28;20133;-58
2022/02/12 09:27:39;;;;;;;3.92;1.58;;;7.40;99.90;;;;;;4991083;28;20156;-59
2022/02/12 09:30:07;;;;;;;2.88;1.20;;;7.50;99.90;;;;;;5017151;28;20053;-59
2022/02/12 09:32:34;;;;;;;5.20;1.70;;;7.50;99.90;;;;;;4993641;28;20161;-59
2022/02/12 09:35:01;;;;;;;4.95;1.77;;;7.50;99.90;;;;;;5000325;28;20085;-58
2022/02/12 09:37:28;;;;;;;2.35;1.27;;;7.50;99.90;;;;;;4993360;28;20089;-59
2022/02/12 09:39:55;;;;;;;6.15;1.60;;;7.60;99.90;;;;;;4996009;28;20133;-57
2022/02/12 09:42:21;;;;;;;4.47;1.75;;;7.60;99.90;;;;;;5010076;28;20275;-56
2022/02/12 09:44:48;;;;;;;5.72;1.67;;;7.60;99.90;;;;;;4998740;28;20144;-58
2022/02/12 09:47:47;;;;;;;6.10;2.17;;;7.70;99.90;;;;;;4992292;28;20169;-58
2022/02/12 09:50:21;;;;;;;6.32;2.10;;;7.80;99.90;;;;;;4982599;28;20093;-58
2022/02/12 09:52:52;;;;;;;3.47;1.45;;;7.80;99.90;;;;;;4991560;28;20126;-58
2022/02/12 09:55:22;;;;;;;4.50;1.92;;;7.90;99.90;;;;;;4994094;28;20123;-58
2022/02/12 09:57:49;;;;;;;3.17;1.40;;;8.00;99.90;;;;;;5005855;28;20527;-57
2022/02/12 10:00:19;;;;;;;5.00;1.40;;;8.10;99.90;;;;;;4992045;28;20085;-58
2022/02/12 10:02:46;;;;;;;7.25;1.70;;;8.10;99.90;;;;;;5001133;28;20560;-58
2022/02/12 10:05:32;;;;;;;6.07;1.80;;;8.10;99.90;;;;;;4994928;28;20534;-58
2022/02/12 10:08:13;;;;;;;3.75;1.65;;;8.20;99.90;;;;;;4989604;28;20521;-56
2022/02/12 10:10:40;;;;;;;2.97;1.27;;;8.10;99.90;;;;;;4996404;28;20050;-57
2022/02/12 10:13:14;;;;;;;3.00;1.42;;;8.20;99.90;;;;;;5010430;28;20159;-57
2022/02/12 10:15:45;;;;;;;3.42;1.30;;;8.30;99.90;;;;;;4998466;28;20041;-58
2022/02/12 10:18:12;;;;;;;5.00;1.67;;;8.30;99.90;;;;;;5021467;28;20136;-56
2022/02/12 10:20:41;;;;;;;5.25;1.85;;;8.20;99.90;;;;;;5009953;28;20129;-58
2022/02/12 10:23:12;;;;;;;5.70;1.73;;;8.10;99.90;;;;;;5000427;28;20248;-57
2022/02/12 10:25:44;;;;;;;2.40;1.20;;;8.10;99.90;;;;;;5001108;28;20145;-57
2022/02/12 10:28:12;;;;;;;3.45;1.40;;;8.10;99.90;;;;;;4985993;28;20046;-57
2022/02/12 10:30:39;;;;;;;8.90;1.90;;;8.20;99.90;;;;;;4984178;28;20290;-61
2022/02/12 10:33:07;;;;;;;4.70;1.70;;;8.10;99.90;;;;;;5003363;28;20137;-57
2022/02/12 10:35:34;;;;;;;6.63;1.88;;;8.00;99.90;;;;;;5000578;28;20093;-58
2022/02/12 10:38:02;;;;;;;6.38;1.27;;;8.00;99.90;;;;;;4992184;28;20236;-57
2022/02/12 10:40:30;;;;;;;3.13;1.38;;;8.10;99.90;;;;;;4998932;28;20494;-57
2022/02/12 10:42:57;;;;;;;4.15;1.35;;;8.20;99.90;;;;;;4992333;28;20462;-58
2022/02/12 10:45:25;;;;;;;3.88;1.30;;;8.20;99.90;;;;;;5004855;28;20133;-58
2022/02/12 10:47:52;;;;;;;4.05;1.38;;;8.30;99.90;;;;;;5003618;28;20120;-58
2022/02/12 10:50:29;;;;;;;;;;;8.40;99.90;;;;;;5019816;28;20049;-58
2022/02/12 10:53:00;;;;;;;4.97;1.35;;;8.50;99.90;;;;;;5020134;28;20331;-58
2022/02/12 10:55:34;;;;;;;3.63;1.42;;;8.40;99.90;;;;;;4999834;28;20050;-58
2022/02/12 10:58:09;;;;;;;2.30;1.30;;;8.40;99.90;;;;;;5000827;28;20394;-57
2022/02/12 11:00:40;;;;;;;3.65;1.60;;;8.40;99.90;;;;;;4989142;28;20564;-58
2022/02/12 11:03:12;;;;;;;5.90;2.40;;;8.30;99.90;;;;;;4989358;28;20541;-58
2022/02/12 11:05:42;;;;;;;4.47;1.65;;;8.40;99.90;;;;;;5006083;28;20231;-56
2022/02/12 11:08:10;;;;;;;3.40;1.38;;;8.40;99.90;;;;;;5005320;28;20561;-58
2022/02/12 11:10:37;;;;;;;6.35;1.75;;;8.50;99.90;;;;;;5019990;28;20105;-58
2022/02/12 11:13:04;;;;;;;4.43;1.98;;;8.40;99.90;;;;;;5019601;28;20084;-57
2022/02/12 11:15:31;;;;;;;5.80;1.67;;;8.40;99.90;;;;;;4987892;28;20140;-57
2022/02/12 11:18:08;;;;;;;3.92;1.80;;;8.30;99.90;;;;;;4999071;28;20058;-56
2022/02/12 11:20:35;;;;;;;3.85;1.95;;;8.20;99.90;;;;;;4980575;28;20048;-57
2022/02/12 11:23:24;;;;;;;3.60;1.70;;;8.20;99.90;;;;;;4982573;28;20097;-58
2022/02/12 11:25:52;;;;;;;2.97;1.42;;;8.20;99.90;;;;;;5000129;28;20068;-57
2022/02/12 11:28:18;;;;;;;4.93;1.70;;;8.20;99.90;;;;;;4990695;28;20138;-57
2022/02/12 11:30:45;;;;;;;3.85;1.48;;;8.20;99.90;;;;;;5013269;28;20865;-58
2022/02/12 11:33:19;;;;;;;2.83;1.30;;;8.20;99.90;;;;;;5015981;28;20155;-56
2022/02/12 11:36:11;;;;;;;2.63;1.42;;;8.20;99.90;;;;;;4999768;28;20292;-57
2022/02/12 11:38:41;;;;;;;3.90;1.65;;;8.20;99.90;;;;;;4989536;28;20076;-56
2022/02/12 11:41:24;;;;;;;4.30;1.85;;;8.10;99.90;;;;;;4992406;28;20133;-56
2022/02/12 11:43:52;;;;;;;2.95;1.27;;;8.10;99.90;;;;;;5009708;28;20053;-57
2022/02/12 11:46:42;;;;;;;3.53;1.77;;;8.00;99.90;;;;;;5007892;28;20060;-56
2022/02/12 11:49:34;;;;;;;4.13;1.27;;;8.00;99.90;;;;;;4987698;28;20085;-58
2022/02/12 11:52:07;;;;;;;2.63;1.35;;;8.00;99.90;;;;;;4988404;28;20137;-57
2022/02/12 11:54:58;;;;;;;3.85;1.48;;;8.30;99.90;;;;;;4987597;28;20050;-56
2022/02/12 11:57:24;;;;;;;4.90;1.30;;;8.50;99.90;;;;;;5004336;28;20164;-57
2022/02/12 12:00:03;;;;;;;2.53;1.13;;;8.60;99.90;;;;;;5016137;28;20063;-58
2022/02/12 12:02:36;;;;;;;4.13;2.25;;;8.70;99.90;;;;;;4986749;28;20046;-57
2022/02/12 12:05:22;;;;;;;2.17;1.35;;;8.70;99.90;;;;;;4993548;28;20054;-58
2022/02/12 12:08:02;;;;;;;2.08;1.25;;;8.70;99.90;;;;;;5013366;28;20081;-57
2022/02/12 12:10:30;;;;;;;3.72;1.42;;;8.80;99.90;;;;;;5019334;28;20060;-56
2022/02/12 12:13:14;;;;;;;4.10;1.52;;;8.90;99.90;;;;;;4999931;28;20486;-57
2022/02/12 12:15:50;;;;;;;;;;;9.00;99.90;;;;;;4989801;28;20073;-58
2022/02/12 12:18:16;;;;;;;2.95;1.58;;;9.20;99.90;;;;;;5009933;28;20001;-57
2022/02/12 12:20:45;;;;;;;3.45;1.35;;;9.40;99.90;;;;;;5003747;28;20136;-56
2022/02/12 12:23:14;;;;;;;3.60;1.50;;;9.60;99.90;;;;;;4999697;28;20235;-54
2022/02/12 12:25:50;;;;;;;4.15;1.52;;;9.80;99.90;;;;;;4989302;28;20046;-58
2022/02/12 12:28:34;;;;;;;3.17;1.33;;;9.90;99.90;;;;;;4989611;28;20177;-56
2022/02/12 12:31:10;;;;;;;4.00;1.83;;;10.10;99.90;;;;;;4991696;28;20054;-58
2022/02/12 12:33:41;;;;;;;2.88;1.90;;;10.20;99.90;;;;;;4989422;28;20165;-54
2022/02/12 12:36:11;;;;;;;5.50;1.63;;;10.20;99.90;;;;;;4996078;28;20373;-58
2022/02/12 12:38:42;;;;;;;2.58;1.42;;;10.40;99.90;;;;;;4989774;28;20097;-57
2022/02/12 12:41:29;;;;;;;4.38;1.42;;;10.60;99.90;;;;;;4996859;28;20108;-56
2022/02/12 12:44:18;;;;;;;2.65;1.77;;;10.70;99.90;;;;;;4993839;28;20145;-58
2022/02/12 12:46:46;;;;;;;3.95;1.33;;;10.80;99.90;;;;;;4993373;28;20046;-57
2022/02/12 12:49:27;;;;;;;5.03;1.60;;;10.90;99.90;;;;;;4991051;28;20113;-57
2022/02/12 12:51:57;;;;;;;2.60;1.30;;;11.00;99.90;;;;;;4986555;28;20077;-58
2022/02/12 12:54:29;;;;;;;3.85;1.45;;;11.20;99.90;;;;;;4984091;28;20111;-58
2022/02/12 12:56:57;;;;;;;4.05;1.45;;;11.40;99.90;;;;;;4990633;28;20423;-58
2022/02/12 12:59:23;;;;;;;3.00;1.60;;;11.50;99.90;;;;;;4991816;28;20207;-58
2022/02/12 13:01:54;;;;;;;4.32;1.60;;;11.60;99.90;;;;;;4993579;28;20061;-56
2022/02/12 13:04:21;;;;;;;2.28;1.15;;;11.60;99.90;;;;;;4996708;28;20081;-57
2022/02/12 13:06:50;;;;;;;4.82;1.67;;;11.50;99.90;;;;;;4999160;28;20081;-58
2022/02/12 13:09:17;;;;;;;2.78;1.20;;;11.50;99.90;;;;;;5012603;28;20140;-58
2022/02/12 13:11:44;;;;;;;6.78;1.85;;;11.70;99.90;;;;;;5013633;28;20308;-58
2022/02/12 13:14:11;;;;;;;3.60;1.15;;;11.80;99.90;;;;;;5000659;28;20599;-56